sensor_id;sensor_type;location;lat;lon;timestamp;P1;durP1;ratioP1;P2;durP2;ratioP2
60416;SDS011;46263;44.726;10.396;2022-10-18T00:01:47;6.97;;;6.28;;
60416;SDS011;46263;44.726;10.396;2022-10-18T00:04:13;6.72;;;6.03;;
60416;SDS011;46263;44.726;10.396;2022-10-18T00:06:38;7.50;;;6.57;;
60416;SDS011;46263;44.726;10.396;2022-10-18T00:09:04;7.82;;;7.03;;
60416;SDS011;46263;44.726;10.396;2022-10-18T00:11:29;7.47;;;6.07;;
60416;SDS011;46263;44.726;10.396;2022-10-18T00:13:55;8.88;;;6.80;;
60416;SDS011;46263;44.726;10.396;2022-10-18T00:16:22;7.57;;;6.22;;
60416;SDS011;46263;44.726;10.396;2022-10-18T00:18:47;8.88;;;6.85;;
60416;SDS011;46263;44.726;10.396;2022-10-18T00:21:15;8.07;;;6.93;;
60416;SDS011;46263;44.726;10.396;2022-10-18T00:23:42;8.18;;;6.53;;
60416;SDS011;46263;44.726;10.396;2022-10-18T00:26:10;8.23;;;6.90;;
60416;SDS011;46263;44.726;10.396;2022-10-18T00:28:37;7.57;;;6.82;;
60416;SDS011;46263;44.726;10.396;2022-10-18T00:33:40;7.18;;;6.32;;
60416;SDS011;46263;44.726;10.396;2022-10-18T00:36:07;9.15;;;6.38;;
60416;SDS011;46263;44.726;10.396;2022-10-18T00:38:32;7.20;;;6.03;;
60416;SDS011;46263;44.726;10.396;2022-10-18T00:40:58;7.57;;;5.88;;
60416;SDS011;46263;44.726;10.396;2022-10-18T00:43:23;6.70;;;6.07;;
60416;SDS011;46263;44.726;10.396;2022-10-18T00:45:49;8.27;;;6.43;;
60416;SDS011;46263;44.726;10.396;2022-10-18T00:48:14;7.47;;;6.38;;
60416;SDS011;46263;44.726;10.396;2022-10-18T00:50:43;8.75;;;7.22;;
60416;SDS011;46263;44.726;10.396;2022-10-18T00:53:11;7.82;;;6.93;;
60416;SDS011;46263;44.726;10.396;2022-10-18T00:55:40;7.55;;;6.18;;
60416;SDS011;46263;44.726;10.396;2022-10-18T00:58:05;7.78;;;6.43;;
60416;SDS011;46263;44.726;10.396;2022-10-18T01:00:33;7.32;;;6.43;;
60416;SDS011;46263;44.726;10.396;2022-10-18T01:03:02;6.97;;;6.22;;
60416;SDS011;46263;44.726;10.396;2022-10-18T01:05:28;7.60;;;6.75;;
60416;SDS011;46263;44.726;10.396;2022-10-18T01:07:57;6.97;;;6.28;;
60416;SDS011;46263;44.726;10.396;2022-10-18T01:13:36;7.45;;;6.43;;
60416;SDS011;46263;44.726;10.396;2022-10-18T01:19:02;7.43;;;5.95;;
60416;SDS011;46263;44.726;10.396;2022-10-18T01:21:53;8.05;;;6.25;;
60416;SDS011;46263;44.726;10.396;2022-10-18T01:32:41;7.22;;;5.82;;
60416;SDS011;46263;44.726;10.396;2022-10-18T01:35:13;6.13;;;5.53;;
60416;SDS011;46263;44.726;10.396;2022-10-18T01:37:43;7.28;;;5.93;;
60416;SDS011;46263;44.726;10.396;2022-10-18T01:40:12;9.60;;;6.78;;
60416;SDS011;46263;44.726;10.396;2022-10-18T01:42:42;5.70;;;5.20;;
60416;SDS011;46263;44.726;10.396;2022-10-18T01:45:10;7.53;;;6.10;;
60416;SDS011;46263;44.726;10.396;2022-10-18T01:47:37;7.18;;;6.10;;
60416;SDS011;46263;44.726;10.396;2022-10-18T01:50:04;6.45;;;5.78;;
60416;SDS011;46263;44.726;10.396;2022-10-18T01:52:30;6.63;;;5.55;;
60416;SDS011;46263;44.726;10.396;2022-10-18T01:54:56;6.20;;;5.57;;
60416;SDS011;46263;44.726;10.396;2022-10-18T01:57:36;7.45;;;5.57;;
60416;SDS011;46263;44.726;10.396;2022-10-18T02:02:51;6.15;;;5.60;;
60416;SDS011;46263;44.726;10.396;2022-10-18T02:10:42;6.43;;;5.80;;
60416;SDS011;46263;44.726;10.396;2022-10-18T02:13:12;6.75;;;6.05;;
60416;SDS011;46263;44.726;10.396;2022-10-18T02:15:42;5.47;;;4.97;;
60416;SDS011;46263;44.726;10.396;2022-10-18T02:18:19;6.28;;;5.68;;
60416;SDS011;46263;44.726;10.396;2022-10-18T02:20:49;6.72;;;5.97;;
60416;SDS011;46263;44.726;10.396;2022-10-18T02:23:16;6.93;;;6.22;;
60416;SDS011;46263;44.726;10.396;2022-10-18T02:25:46;6.88;;;6.15;;
60416;SDS011;46263;44.726;10.396;2022-10-18T02:28:11;6.70;;;5.80;;
60416;SDS011;46263;44.726;10.396;2022-10-18T02:30:43;6.68;;;5.65;;
60416;SDS011;46263;44.726;10.396;2022-10-18T02:33:21;7.45;;;5.85;;
60416;SDS011;46263;44.726;10.396;2022-10-18T02:35:59;6.30;;;5.70;;
60416;SDS011;46263;44.726;10.396;2022-10-18T02:38:34;6.93;;;6.15;;
60416;SDS011;46263;44.726;10.396;2022-10-18T02:41:01;5.82;;;5.20;;
60416;SDS011;46263;44.726;10.396;2022-10-18T02:43:27;6.60;;;5.88;;
60416;SDS011;46263;44.726;10.396;2022-10-18T02:45:52;6.78;;;6.07;;
60416;SDS011;46263;44.726;10.396;2022-10-18T02:48:18;6.97;;;5.88;;
60416;SDS011;46263;44.726;10.396;2022-10-18T02:50:43;6.78;;;5.90;;
60416;SDS011;46263;44.726;10.396;2022-10-18T02:53:09;5.50;;;5.00;;
60416;SDS011;46263;44.726;10.396;2022-10-18T02:55:34;5.88;;;5.30;;
60416;SDS011;46263;44.726;10.396;2022-10-18T02:58:00;6.55;;;5.75;;
60416;SDS011;46263;44.726;10.396;2022-10-18T03:00:25;6.43;;;5.72;;
60416;SDS011;46263;44.726;10.396;2022-10-18T03:02:50;7.57;;;5.57;;
60416;SDS011;46263;44.726;10.396;2022-10-18T03:05:17;6.07;;;5.47;;
60416;SDS011;46263;44.726;10.396;2022-10-18T03:07:43;7.07;;;5.72;;
60416;SDS011;46263;44.726;10.396;2022-10-18T03:10:08;6.97;;;5.72;;
60416;SDS011;46263;44.726;10.396;2022-10-18T03:12:34;5.95;;;5.25;;
60416;SDS011;46263;44.726;10.396;2022-10-18T03:14:59;5.43;;;4.93;;
60416;SDS011;46263;44.726;10.396;2022-10-18T03:17:24;6.20;;;5.55;;
60416;SDS011;46263;44.726;10.396;2022-10-18T03:19:50;6.13;;;5.30;;
60416;SDS011;46263;44.726;10.396;2022-10-18T03:22:15;6.38;;;5.78;;
60416;SDS011;46263;44.726;10.396;2022-10-18T03:24:41;6.15;;;5.57;;
60416;SDS011;46263;44.726;10.396;2022-10-18T03:27:06;5.88;;;5.13;;
60416;SDS011;46263;44.726;10.396;2022-10-18T03:29:32;6.45;;;5.53;;
60416;SDS011;46263;44.726;10.396;2022-10-18T03:31:57;5.60;;;5.10;;
60416;SDS011;46263;44.726;10.396;2022-10-18T03:34:22;6.75;;;5.65;;
60416;SDS011;46263;44.726;10.396;2022-10-18T03:36:48;6.32;;;5.72;;
60416;SDS011;46263;44.726;10.396;2022-10-18T03:39:13;6.03;;;5.35;;
60416;SDS011;46263;44.726;10.396;2022-10-18T03:41:39;6.07;;;5.43;;
60416;SDS011;46263;44.726;10.396;2022-10-18T03:44:04;6.25;;;5.65;;
60416;SDS011;46263;44.726;10.396;2022-10-18T03:46:29;5.97;;;5.30;;
60416;SDS011;46263;44.726;10.396;2022-10-18T03:48:55;6.43;;;5.68;;
60416;SDS011;46263;44.726;10.396;2022-10-18T03:51:21;5.40;;;4.90;;
60416;SDS011;46263;44.726;10.396;2022-10-18T03:53:46;5.32;;;4.82;;
60416;SDS011;46263;44.726;10.396;2022-10-18T03:56:11;6.20;;;5.60;;
60416;SDS011;46263;44.726;10.396;2022-10-18T03:58:37;6.65;;;5.20;;
60416;SDS011;46263;44.726;10.396;2022-10-18T04:01:02;5.68;;;5.03;;
60416;SDS011;46263;44.726;10.396;2022-10-18T04:03:28;7.57;;;5.20;;
60416;SDS011;46263;44.726;10.396;2022-10-18T04:05:53;5.43;;;4.93;;
60416;SDS011;46263;44.726;10.396;2022-10-18T04:08:19;5.65;;;5.15;;
60416;SDS011;46263;44.726;10.396;2022-10-18T04:10:44;5.85;;;5.22;;
60416;SDS011;46263;44.726;10.396;2022-10-18T04:13:10;5.47;;;4.97;;
60416;SDS011;46263;44.726;10.396;2022-10-18T04:15:35;5.32;;;4.82;;
60416;SDS011;46263;44.726;10.396;2022-10-18T04:18:00;6.03;;;4.97;;
60416;SDS011;46263;44.726;10.396;2022-10-18T04:20:27;5.38;;;4.88;;
60416;SDS011;46263;44.726;10.396;2022-10-18T04:22:53;6.10;;;5.50;;
60416;SDS011;46263;44.726;10.396;2022-10-18T04:25:22;5.93;;;5.32;;
60416;SDS011;46263;44.726;10.396;2022-10-18T04:27:48;5.55;;;5.03;;
60416;SDS011;46263;44.726;10.396;2022-10-18T04:30:13;6.00;;;5.20;;
60416;SDS011;46263;44.726;10.396;2022-10-18T04:32:39;6.55;;;5.18;;
60416;SDS011;46263;44.726;10.396;2022-10-18T04:35:05;5.95;;;5.35;;
60416;SDS011;46263;44.726;10.396;2022-10-18T04:37:31;6.30;;;5.70;;
60416;SDS011;46263;44.726;10.396;2022-10-18T04:39:57;5.22;;;4.72;;
60416;SDS011;46263;44.726;10.396;2022-10-18T04:42:23;5.07;;;4.60;;
60416;SDS011;46263;44.726;10.396;2022-10-18T04:44:48;5.75;;;5.15;;
60416;SDS011;46263;44.726;10.396;2022-10-18T04:47:14;5.70;;;5.20;;
60416;SDS011;46263;44.726;10.396;2022-10-18T04:49:40;5.43;;;4.90;;
60416;SDS011;46263;44.726;10.396;2022-10-18T04:52:06;5.60;;;5.10;;
60416;SDS011;46263;44.726;10.396;2022-10-18T04:54:31;5.25;;;4.80;;
60416;SDS011;46263;44.726;10.396;2022-10-18T04:56:57;5.32;;;4.82;;
60416;SDS011;46263;44.726;10.396;2022-10-18T04:59:22;5.85;;;5.28;;
60416;SDS011;46263;44.726;10.396;2022-10-18T05:01:48;5.47;;;4.97;;
60416;SDS011;46263;44.726;10.396;2022-10-18T05:04:13;6.53;;;5.20;;
60416;SDS011;46263;44.726;10.396;2022-10-18T05:06:39;5.43;;;4.78;;
60416;SDS011;46263;44.726;10.396;2022-10-18T05:09:04;5.38;;;4.88;;
60416;SDS011;46263;44.726;10.396;2022-10-18T05:11:30;5.60;;;5.10;;
60416;SDS011;46263;44.726;10.396;2022-10-18T05:13:55;5.97;;;5.38;;
60416;SDS011;46263;44.726;10.396;2022-10-18T05:16:21;5.35;;;4.85;;
60416;SDS011;46263;44.726;10.396;2022-10-18T05:18:46;5.13;;;4.63;;
60416;SDS011;46263;44.726;10.396;2022-10-18T05:21:12;5.18;;;4.68;;
60416;SDS011;46263;44.726;10.396;2022-10-18T05:23:37;5.85;;;5.25;;
60416;SDS011;46263;44.726;10.396;2022-10-18T05:26:04;5.22;;;4.80;;
60416;SDS011;46263;44.726;10.396;2022-10-18T05:28:30;4.95;;;4.50;;
60416;SDS011;46263;44.726;10.396;2022-10-18T05:31:00;4.82;;;4.43;;
60416;SDS011;46263;44.726;10.396;2022-10-18T05:33:26;5.40;;;4.85;;
60416;SDS011;46263;44.726;10.396;2022-10-18T05:35:52;5.25;;;4.78;;
60416;SDS011;46263;44.726;10.396;2022-10-18T05:38:17;5.05;;;4.55;;
60416;SDS011;46263;44.726;10.396;2022-10-18T05:40:43;4.78;;;4.28;;
60416;SDS011;46263;44.726;10.396;2022-10-18T05:43:08;5.40;;;4.90;;
60416;SDS011;46263;44.726;10.396;2022-10-18T05:45:34;4.70;;;4.30;;
60416;SDS011;46263;44.726;10.396;2022-10-18T05:47:59;5.05;;;4.57;;
60416;SDS011;46263;44.726;10.396;2022-10-18T05:50:24;5.80;;;5.05;;
60416;SDS011;46263;44.726;10.396;2022-10-18T05:52:50;4.63;;;4.22;;
60416;SDS011;46263;44.726;10.396;2022-10-18T05:55:15;4.60;;;4.20;;
60416;SDS011;46263;44.726;10.396;2022-10-18T05:57:41;5.68;;;5.10;;
60416;SDS011;46263;44.726;10.396;2022-10-18T06:00:06;5.32;;;4.82;;
60416;SDS011;46263;44.726;10.396;2022-10-18T06:02:32;5.70;;;5.10;;
60416;SDS011;46263;44.726;10.396;2022-10-18T06:04:58;5.00;;;4.50;;
60416;SDS011;46263;44.726;10.396;2022-10-18T06:07:23;5.10;;;4.30;;
60416;SDS011;46263;44.726;10.396;2022-10-18T06:09:49;5.50;;;5.00;;
60416;SDS011;46263;44.726;10.396;2022-10-18T06:12:14;5.05;;;4.60;;
60416;SDS011;46263;44.726;10.396;2022-10-18T06:14:41;4.60;;;4.20;;
60416;SDS011;46263;44.726;10.396;2022-10-18T06:17:07;4.40;;;4.00;;
60416;SDS011;46263;44.726;10.396;2022-10-18T06:19:32;4.95;;;4.45;;
60416;SDS011;46263;44.726;10.396;2022-10-18T06:21:58;5.13;;;4.72;;
60416;SDS011;46263;44.726;10.396;2022-10-18T06:24:23;5.07;;;4.60;;
60416;SDS011;46263;44.726;10.396;2022-10-18T06:26:49;6.75;;;4.40;;
60416;SDS011;46263;44.726;10.396;2022-10-18T06:29:14;4.90;;;4.43;;
60416;SDS011;46263;44.726;10.396;2022-10-18T06:31:40;4.68;;;4.20;;
60416;SDS011;46263;44.726;10.396;2022-10-18T06:34:05;4.60;;;4.20;;
60416;SDS011;46263;44.726;10.396;2022-10-18T06:36:31;5.10;;;4.60;;
60416;SDS011;46263;44.726;10.396;2022-10-18T06:38:56;4.57;;;4.18;;
60416;SDS011;46263;44.726;10.396;2022-10-18T06:41:22;4.75;;;4.28;;
60416;SDS011;46263;44.726;10.396;2022-10-18T06:43:48;6.22;;;4.68;;
60416;SDS011;46263;44.726;10.396;2022-10-18T06:46:14;5.10;;;4.60;;
60416;SDS011;46263;44.726;10.396;2022-10-18T06:48:40;5.22;;;4.72;;
60416;SDS011;46263;44.726;10.396;2022-10-18T06:51:05;5.15;;;4.45;;
60416;SDS011;46263;44.726;10.396;2022-10-18T06:53:33;4.85;;;4.35;;
60416;SDS011;46263;44.726;10.396;2022-10-18T06:56:01;5.18;;;4.78;;
60416;SDS011;46263;44.726;10.396;2022-10-18T06:58:28;5.90;;;4.45;;
60416;SDS011;46263;44.726;10.396;2022-10-18T07:00:55;4.65;;;4.25;;
60416;SDS011;46263;44.726;10.396;2022-10-18T07:03:21;4.40;;;4.00;;
60416;SDS011;46263;44.726;10.396;2022-10-18T07:05:47;5.18;;;4.68;;
60416;SDS011;46263;44.726;10.396;2022-10-18T07:08:13;5.32;;;4.82;;
60416;SDS011;46263;44.726;10.396;2022-10-18T07:10:39;5.07;;;4.55;;
60416;SDS011;46263;44.726;10.396;2022-10-18T07:13:04;4.95;;;4.55;;
60416;SDS011;46263;44.726;10.396;2022-10-18T07:15:30;5.63;;;4.60;;
60416;SDS011;46263;44.726;10.396;2022-10-18T07:17:55;4.70;;;4.30;;
60416;SDS011;46263;44.726;10.396;2022-10-18T07:20:21;5.15;;;4.75;;
60416;SDS011;46263;44.726;10.396;2022-10-18T07:22:46;5.63;;;5.10;;
60416;SDS011;46263;44.726;10.396;2022-10-18T07:25:12;5.13;;;4.63;;
60416;SDS011;46263;44.726;10.396;2022-10-18T07:27:37;5.00;;;4.57;;
60416;SDS011;46263;44.726;10.396;2022-10-18T07:30:06;4.82;;;4.32;;
60416;SDS011;46263;44.726;10.396;2022-10-18T07:32:32;4.95;;;4.32;;
60416;SDS011;46263;44.726;10.396;2022-10-18T07:34:57;5.05;;;4.63;;
60416;SDS011;46263;44.726;10.396;2022-10-18T07:37:23;5.05;;;4.65;;
60416;SDS011;46263;44.726;10.396;2022-10-18T07:39:48;5.13;;;4.60;;
60416;SDS011;46263;44.726;10.396;2022-10-18T07:42:14;5.10;;;4.60;;
60416;SDS011;46263;44.726;10.396;2022-10-18T07:44:39;5.95;;;4.97;;
60416;SDS011;46263;44.726;10.396;2022-10-18T07:47:05;4.75;;;4.35;;
60416;SDS011;46263;44.726;10.396;2022-10-18T07:49:30;4.93;;;4.53;;
60416;SDS011;46263;44.726;10.396;2022-10-18T07:51:55;4.53;;;4.13;;
60416;SDS011;46263;44.726;10.396;2022-10-18T07:54:21;4.85;;;4.25;;
60416;SDS011;46263;44.726;10.396;2022-10-18T07:56:46;4.38;;;3.97;;
60416;SDS011;46263;44.726;10.396;2022-10-18T07:59:12;4.80;;;4.40;;
60416;SDS011;46263;44.726;10.396;2022-10-18T08:01:38;6.50;;;4.47;;
60416;SDS011;46263;44.726;10.396;2022-10-18T08:04:04;5.57;;;4.57;;
60416;SDS011;46263;44.726;10.396;2022-10-18T08:06:29;4.20;;;3.78;;
60416;SDS011;46263;44.726;10.396;2022-10-18T08:08:55;4.97;;;4.20;;
60416;SDS011;46263;44.726;10.396;2022-10-18T08:11:21;4.57;;;4.10;;
60416;SDS011;46263;44.726;10.396;2022-10-18T08:13:49;5.28;;;3.85;;
60416;SDS011;46263;44.726;10.396;2022-10-18T08:16:17;4.68;;;4.07;;
60416;SDS011;46263;44.726;10.396;2022-10-18T08:18:46;4.45;;;4.03;;
60416;SDS011;46263;44.726;10.396;2022-10-18T08:21:13;4.95;;;4.32;;
60416;SDS011;46263;44.726;10.396;2022-10-18T08:23:40;6.20;;;4.40;;
60416;SDS011;46263;44.726;10.396;2022-10-18T08:26:07;4.63;;;4.22;;
60416;SDS011;46263;44.726;10.396;2022-10-18T08:28:35;4.53;;;4.13;;
60416;SDS011;46263;44.726;10.396;2022-10-18T08:31:01;4.47;;;4.07;;
60416;SDS011;46263;44.726;10.396;2022-10-18T08:33:37;4.78;;;4.38;;
60416;SDS011;46263;44.726;10.396;2022-10-18T08:36:04;4.38;;;3.97;;
60416;SDS011;46263;44.726;10.396;2022-10-18T08:38:32;5.18;;;4.70;;
60416;SDS011;46263;44.726;10.396;2022-10-18T08:41:13;5.80;;;5.30;;
60416;SDS011;46263;44.726;10.396;2022-10-18T08:44:13;5.57;;;4.85;;
60416;SDS011;46263;44.726;10.396;2022-10-18T08:46:45;5.45;;;4.78;;
60416;SDS011;46263;44.726;10.396;2022-10-18T08:49:17;5.82;;;5.22;;
60416;SDS011;46263;44.726;10.396;2022-10-18T08:51:47;5.85;;;4.55;;
60416;SDS011;46263;44.726;10.396;2022-10-18T08:54:18;5.18;;;4.68;;
60416;SDS011;46263;44.726;10.396;2022-10-18T08:56:55;5.35;;;4.75;;
60416;SDS011;46263;44.726;10.396;2022-10-18T08:59:23;5.50;;;4.90;;
60416;SDS011;46263;44.726;10.396;2022-10-18T09:04:38;4.97;;;4.53;;
60416;SDS011;46263;44.726;10.396;2022-10-18T09:07:28;5.15;;;4.65;;
60416;SDS011;46263;44.726;10.396;2022-10-18T09:10:25;7.18;;;4.82;;
60416;SDS011;46263;44.726;10.396;2022-10-18T09:21:03;6.32;;;5.40;;
60416;SDS011;46263;44.726;10.396;2022-10-18T09:23:58;10.48;;;6.32;;
60416;SDS011;46263;44.726;10.396;2022-10-18T09:26:47;7.28;;;5.93;;
60416;SDS011;46263;44.726;10.396;2022-10-18T09:34:58;5.53;;;5.00;;
60416;SDS011;46263;44.726;10.396;2022-10-18T09:37:31;5.28;;;4.63;;
60416;SDS011;46263;44.726;10.396;2022-10-18T09:40:18;6.25;;;4.70;;
60416;SDS011;46263;44.726;10.396;2022-10-18T09:55:37;5.45;;;4.53;;
60416;SDS011;46263;44.726;10.396;2022-10-18T09:58:12;5.28;;;4.78;;
60416;SDS011;46263;44.726;10.396;2022-10-18T10:00:45;7.80;;;5.38;;
60416;SDS011;46263;44.726;10.396;2022-10-18T10:03:13;5.82;;;5.30;;
60416;SDS011;46263;44.726;10.396;2022-10-18T10:05:40;6.30;;;4.93;;
60416;SDS011;46263;44.726;10.396;2022-10-18T10:08:08;5.55;;;5.00;;
60416;SDS011;46263;44.726;10.396;2022-10-18T10:10:35;6.22;;;5.60;;
60416;SDS011;46263;44.726;10.396;2022-10-18T10:13:18;6.30;;;5.00;;
60416;SDS011;46263;44.726;10.396;2022-10-18T10:16:01;7.10;;;5.78;;
60416;SDS011;46263;44.726;10.396;2022-10-18T10:18:34;6.30;;;5.47;;
60416;SDS011;46263;44.726;10.396;2022-10-18T10:21:03;5.75;;;4.85;;
60416;SDS011;46263;44.726;10.396;2022-10-18T10:23:44;6.30;;;5.18;;
60416;SDS011;46263;44.726;10.396;2022-10-18T10:32:17;6.93;;;5.07;;
60416;SDS011;46263;44.726;10.396;2022-10-18T10:34:44;6.40;;;5.22;;
60416;SDS011;46263;44.726;10.396;2022-10-18T10:37:23;5.85;;;5.25;;
60416;SDS011;46263;44.726;10.396;2022-10-18T10:40:23;6.00;;;5.32;;
60416;SDS011;46263;44.726;10.396;2022-10-18T10:42:51;5.70;;;5.07;;
60416;SDS011;46263;44.726;10.396;2022-10-18T10:45:30;6.65;;;5.18;;
60416;SDS011;46263;44.726;10.396;2022-10-18T10:48:17;5.78;;;5.18;;
60416;SDS011;46263;44.726;10.396;2022-10-18T10:53:27;6.65;;;5.88;;
60416;SDS011;46263;44.726;10.396;2022-10-18T10:56:32;6.95;;;5.50;;
60416;SDS011;46263;44.726;10.396;2022-10-18T11:01:33;7.05;;;5.40;;
60416;SDS011;46263;44.726;10.396;2022-10-18T11:04:00;7.70;;;6.00;;
60416;SDS011;46263;44.726;10.396;2022-10-18T11:10:02;5.93;;;5.05;;
60416;SDS011;46263;44.726;10.396;2022-10-18T11:20:31;6.07;;;5.47;;
60416;SDS011;46263;44.726;10.396;2022-10-18T11:23:24;6.30;;;5.18;;
60416;SDS011;46263;44.726;10.396;2022-10-18T11:39:24;6.00;;;5.25;;
60416;SDS011;46263;44.726;10.396;2022-10-18T11:41:54;6.82;;;5.50;;
60416;SDS011;46263;44.726;10.396;2022-10-18T11:47:14;6.38;;;5.78;;
60416;SDS011;46263;44.726;10.396;2022-10-18T12:04:15;5.45;;;4.68;;
60416;SDS011;46263;44.726;10.396;2022-10-18T12:06:45;5.45;;;4.85;;
60416;SDS011;46263;44.726;10.396;2022-10-18T12:09:23;5.90;;;5.20;;
60416;SDS011;46263;44.726;10.396;2022-10-18T12:11:59;5.75;;;5.15;;
60416;SDS011;46263;44.726;10.396;2022-10-18T12:14:41;6.05;;;5.22;;
60416;SDS011;46263;44.726;10.396;2022-10-18T12:17:11;7.85;;;5.72;;
60416;SDS011;46263;44.726;10.396;2022-10-18T12:19:45;5.95;;;5.22;;
60416;SDS011;46263;44.726;10.396;2022-10-18T12:22:17;5.63;;;5.13;;
60416;SDS011;46263;44.726;10.396;2022-10-18T12:24:47;6.13;;;5.10;;
60416;SDS011;46263;44.726;10.396;2022-10-18T12:27:13;7.32;;;5.68;;
60416;SDS011;46263;44.726;10.396;2022-10-18T12:29:49;6.70;;;5.65;;
60416;SDS011;46263;44.726;10.396;2022-10-18T12:32:29;5.88;;;5.13;;
60416;SDS011;46263;44.726;10.396;2022-10-18T12:42:48;6.25;;;5.45;;
60416;SDS011;46263;44.726;10.396;2022-10-18T12:48:06;7.88;;;5.55;;
60416;SDS011;46263;44.726;10.396;2022-10-18T12:50:56;6.57;;;5.03;;
60416;SDS011;46263;44.726;10.396;2022-10-18T12:53:38;6.88;;;5.53;;
60416;SDS011;46263;44.726;10.396;2022-10-18T13:09:24;6.63;;;5.40;;
60416;SDS011;46263;44.726;10.396;2022-10-18T13:11:51;7.80;;;5.90;;
60416;SDS011;46263;44.726;10.396;2022-10-18T13:14:24;5.60;;;4.95;;
60416;SDS011;46263;44.726;10.396;2022-10-18T13:19:49;7.00;;;5.47;;
60416;SDS011;46263;44.726;10.396;2022-10-18T13:25:20;5.88;;;5.28;;
60416;SDS011;46263;44.726;10.396;2022-10-18T13:33:44;6.50;;;5.25;;
60416;SDS011;46263;44.726;10.396;2022-10-18T13:41:20;7.43;;;5.80;;
60416;SDS011;46263;44.726;10.396;2022-10-18T13:44:26;7.05;;;5.97;;
60416;SDS011;46263;44.726;10.396;2022-10-18T14:03:39;7.75;;;5.88;;
60416;SDS011;46263;44.726;10.396;2022-10-18T14:06:22;11.18;;;8.13;;
60416;SDS011;46263;44.726;10.396;2022-10-18T14:09:07;11.07;;;8.38;;
60416;SDS011;46263;44.726;10.396;2022-10-18T14:14:40;15.25;;;10.20;;
60416;SDS011;46263;44.726;10.396;2022-10-18T14:22:27;16.67;;;10.30;;
60416;SDS011;46263;44.726;10.396;2022-10-18T14:28:12;15.82;;;9.75;;
60416;SDS011;46263;44.726;10.396;2022-10-18T14:30:52;15.63;;;10.20;;
60416;SDS011;46263;44.726;10.396;2022-10-18T14:33:29;14.43;;;10.13;;
60416;SDS011;46263;44.726;10.396;2022-10-18T14:36:21;13.80;;;9.93;;
60416;SDS011;46263;44.726;10.396;2022-10-18T14:38:50;15.02;;;10.52;;
60416;SDS011;46263;44.726;10.396;2022-10-18T14:41:24;14.25;;;9.40;;
60416;SDS011;46263;44.726;10.396;2022-10-18T14:46:45;11.98;;;9.32;;
60416;SDS011;46263;44.726;10.396;2022-10-18T14:49:13;12.15;;;9.27;;
60416;SDS011;46263;44.726;10.396;2022-10-18T14:51:40;12.68;;;9.45;;
60416;SDS011;46263;44.726;10.396;2022-10-18T14:54:24;15.23;;;10.07;;
60416;SDS011;46263;44.726;10.396;2022-10-18T14:56:54;13.18;;;9.02;;
60416;SDS011;46263;44.726;10.396;2022-10-18T14:59:22;12.43;;;9.75;;
60416;SDS011;46263;44.726;10.396;2022-10-18T15:01:50;14.82;;;9.63;;
60416;SDS011;46263;44.726;10.396;2022-10-18T15:04:18;13.65;;;9.38;;
60416;SDS011;46263;44.726;10.396;2022-10-18T15:06:44;15.25;;;10.10;;
60416;SDS011;46263;44.726;10.396;2022-10-18T15:09:10;11.55;;;9.07;;
60416;SDS011;46263;44.726;10.396;2022-10-18T15:11:37;12.13;;;9.60;;
60416;SDS011;46263;44.726;10.396;2022-10-18T15:14:06;12.68;;;8.75;;
60416;SDS011;46263;44.726;10.396;2022-10-18T15:16:40;11.23;;;8.95;;
60416;SDS011;46263;44.726;10.396;2022-10-18T15:19:21;13.93;;;8.73;;
60416;SDS011;46263;44.726;10.396;2022-10-18T15:21:59;10.88;;;8.65;;
60416;SDS011;46263;44.726;10.396;2022-10-18T15:26:51;14.30;;;9.85;;
60416;SDS011;46263;44.726;10.396;2022-10-18T15:29:23;11.07;;;8.70;;
60416;SDS011;46263;44.726;10.396;2022-10-18T15:31:49;13.30;;;9.52;;
60416;SDS011;46263;44.726;10.396;2022-10-18T15:34:21;13.18;;;8.88;;
60416;SDS011;46263;44.726;10.396;2022-10-18T15:36:49;12.93;;;8.70;;
60416;SDS011;46263;44.726;10.396;2022-10-18T15:39:17;15.32;;;8.98;;
60416;SDS011;46263;44.726;10.396;2022-10-18T15:41:54;10.48;;;7.72;;
60416;SDS011;46263;44.726;10.396;2022-10-18T15:44:31;12.90;;;8.70;;
60416;SDS011;46263;44.726;10.396;2022-10-18T15:47:09;10.23;;;7.55;;
60416;SDS011;46263;44.726;10.396;2022-10-18T15:54:56;9.95;;;8.10;;
60416;SDS011;46263;44.726;10.396;2022-10-18T15:57:22;11.02;;;7.88;;
60416;SDS011;46263;44.726;10.396;2022-10-18T16:00:06;11.00;;;7.82;;
60416;SDS011;46263;44.726;10.396;2022-10-18T16:02:46;11.05;;;8.00;;
60416;SDS011;46263;44.726;10.396;2022-10-18T16:05:13;13.38;;;8.23;;
60416;SDS011;46263;44.726;10.396;2022-10-18T16:07:43;9.13;;;8.02;;
60416;SDS011;46263;44.726;10.396;2022-10-18T16:10:11;10.40;;;8.60;;
60416;SDS011;46263;44.726;10.396;2022-10-18T16:12:38;10.80;;;8.15;;
60416;SDS011;46263;44.726;10.396;2022-10-18T16:15:03;10.25;;;8.23;;
60416;SDS011;46263;44.726;10.396;2022-10-18T16:17:29;10.27;;;7.50;;
60416;SDS011;46263;44.726;10.396;2022-10-18T16:19:55;11.05;;;8.13;;
60416;SDS011;46263;44.726;10.396;2022-10-18T16:22:20;9.85;;;8.07;;
60416;SDS011;46263;44.726;10.396;2022-10-18T16:24:46;8.48;;;7.57;;
60416;SDS011;46263;44.726;10.396;2022-10-18T16:27:11;10.65;;;7.75;;
60416;SDS011;46263;44.726;10.396;2022-10-18T16:29:37;10.25;;;7.82;;
60416;SDS011;46263;44.726;10.396;2022-10-18T16:32:02;11.40;;;7.75;;
60416;SDS011;46263;44.726;10.396;2022-10-18T16:34:28;8.85;;;7.97;;
60416;SDS011;46263;44.726;10.396;2022-10-18T16:36:56;8.48;;;7.30;;
60416;SDS011;46263;44.726;10.396;2022-10-18T16:39:22;8.15;;;7.35;;
60416;SDS011;46263;44.726;10.396;2022-10-18T16:41:47;8.65;;;7.55;;
60416;SDS011;46263;44.726;10.396;2022-10-18T16:44:13;8.60;;;7.70;;
60416;SDS011;46263;44.726;10.396;2022-10-18T16:46:40;8.52;;;7.55;;
60416;SDS011;46263;44.726;10.396;2022-10-18T16:49:06;8.63;;;7.60;;
60416;SDS011;46263;44.726;10.396;2022-10-18T16:51:41;8.48;;;7.50;;
60416;SDS011;46263;44.726;10.396;2022-10-18T16:54:06;8.73;;;7.47;;
60416;SDS011;46263;44.726;10.396;2022-10-18T16:56:32;8.60;;;7.20;;
60416;SDS011;46263;44.726;10.396;2022-10-18T16:58:58;9.13;;;8.13;;
60416;SDS011;46263;44.726;10.396;2022-10-18T17:01:24;13.07;;;9.05;;
60416;SDS011;46263;44.726;10.396;2022-10-18T17:03:50;9.73;;;7.82;;
60416;SDS011;46263;44.726;10.396;2022-10-18T17:06:18;10.93;;;8.80;;
60416;SDS011;46263;44.726;10.396;2022-10-18T17:08:52;9.32;;;8.15;;
60416;SDS011;46263;44.726;10.396;2022-10-18T17:11:19;12.88;;;9.18;;
60416;SDS011;46263;44.726;10.396;2022-10-18T17:13:45;15.15;;;9.38;;
60416;SDS011;46263;44.726;10.396;2022-10-18T17:16:24;12.05;;;9.25;;
60416;SDS011;46263;44.726;10.396;2022-10-18T17:18:55;11.98;;;8.90;;
60416;SDS011;46263;44.726;10.396;2022-10-18T17:21:22;11.75;;;9.18;;
60416;SDS011;46263;44.726;10.396;2022-10-18T17:23:48;13.60;;;9.80;;
60416;SDS011;46263;44.726;10.396;2022-10-18T17:26:16;14.23;;;9.63;;
60416;SDS011;46263;44.726;10.396;2022-10-18T17:28:44;14.48;;;10.13;;
60416;SDS011;46263;44.726;10.396;2022-10-18T17:31:09;14.45;;;10.45;;
60416;SDS011;46263;44.726;10.396;2022-10-18T17:33:35;14.05;;;10.65;;
60416;SDS011;46263;44.726;10.396;2022-10-18T17:36:01;13.48;;;9.95;;
60416;SDS011;46263;44.726;10.396;2022-10-18T17:38:26;12.20;;;9.52;;
60416;SDS011;46263;44.726;10.396;2022-10-18T17:40:53;12.05;;;9.55;;
60416;SDS011;46263;44.726;10.396;2022-10-18T17:43:18;13.63;;;10.00;;
60416;SDS011;46263;44.726;10.396;2022-10-18T17:45:47;11.77;;;9.40;;
60416;SDS011;46263;44.726;10.396;2022-10-18T17:48:15;12.63;;;9.65;;
60416;SDS011;46263;44.726;10.396;2022-10-18T17:50:40;11.70;;;9.10;;